createdAt,value
2023-04-16T00:00:34.154Z,99.90
2023-04-16T00:03:01.454Z,99.90
2023-04-16T00:05:28.733Z,99.90
2023-04-16T00:07:58.814Z,99.90
2023-04-16T00:10:25.952Z,99.90
2023-04-16T00:12:53.094Z,99.90
2023-04-16T00:15:20.213Z,99.90
2023-04-16T00:17:47.402Z,99.90
2023-04-16T00:20:14.618Z,99.90
2023-04-16T00:22:44.712Z,99.90
2023-04-16T00:25:11.814Z,99.90
2023-04-16T00:27:38.880Z,99.90
2023-04-16T00:30:07.497Z,99.90
2023-04-16T00:32:34.692Z,99.90
2023-04-16T00:35:01.878Z,99.90
2023-04-16T00:37:29.111Z,99.90
2023-04-16T00:39:56.249Z,99.90
2023-04-16T00:42:26.500Z,99.90
2023-04-16T00:44:53.567Z,99.90
2023-04-16T00:47:21.910Z,99.90
2023-04-16T00:49:49.451Z,99.90
2023-04-16T00:52:16.554Z,99.90
2023-04-16T00:54:43.753Z,99.90
2023-04-16T00:57:11.248Z,99.90
2023-04-16T00:59:38.408Z,99.90
2023-04-16T01:02:05.967Z,99.90
2023-04-16T01:04:34.920Z,99.90
2023-04-16T01:07:02.030Z,99.90
2023-04-16T01:09:29.221Z,99.90
2023-04-16T01:11:56.305Z,99.90
2023-04-16T01:14:23.385Z,99.90
2023-04-16T01:16:50.668Z,99.90
2023-04-16T01:19:17.812Z,99.90
2023-04-16T01:21:44.981Z,99.90
2023-04-16T01:24:12.079Z,99.90
2023-04-16T01:26:39.110Z,99.90
2023-04-16T01:29:06.598Z,99.90
2023-04-16T01:31:33.854Z,99.90
2023-04-16T01:34:01.084Z,99.90
2023-04-16T01:36:28.232Z,99.90
2023-04-16T01:38:55.667Z,99.90
2023-04-16T01:41:22.850Z,99.90
2023-04-16T01:43:49.932Z,99.90
2023-04-16T01:46:27.377Z,99.90
2023-04-16T01:48:55.425Z,99.90
2023-04-16T01:51:22.665Z,99.90
2023-04-16T01:53:50.593Z,99.90
2023-04-16T01:56:17.756Z,99.90
2023-04-16T01:58:46.181Z,99.90
2023-04-16T02:01:14.297Z,99.90
2023-04-16T02:03:42.210Z,99.90
2023-04-16T02:06:09.582Z,99.90
2023-04-16T02:08:36.829Z,99.90
2023-04-16T02:11:04.003Z,99.90
2023-04-16T02:13:31.049Z,99.90
2023-04-16T02:16:00.902Z,99.90
2023-04-16T02:18:28.270Z,99.90
2023-04-16T02:21:00.078Z,99.90
2023-04-16T02:23:27.203Z,99.90
2023-04-16T02:25:54.332Z,99.90
2023-04-16T02:28:21.377Z,99.90
2023-04-16T02:30:48.581Z,99.90
2023-04-16T02:33:15.750Z,99.90
2023-04-16T02:35:45.348Z,99.90
2023-04-16T02:38:12.470Z,99.90
2023-04-16T02:40:39.698Z,99.90
2023-04-16T02:43:06.796Z,99.90
2023-04-16T02:45:34.696Z,99.90
2023-04-16T02:48:01.835Z,99.90
2023-04-16T02:50:28.900Z,99.90
2023-04-16T02:52:58.283Z,99.90
2023-04-16T02:55:25.489Z,99.90
2023-04-16T02:57:53.100Z,99.90
2023-04-16T03:00:20.289Z,99.90
2023-04-16T03:02:47.478Z,99.90
2023-04-16T03:05:14.739Z,99.90
2023-04-16T03:07:41.933Z,99.90
2023-04-16T03:10:10.271Z,99.90
2023-04-16T03:12:37.469Z,99.90
2023-04-16T03:15:04.962Z,99.90
2023-04-16T03:17:34.864Z,99.90
2023-04-16T03:20:02.132Z,99.90
2023-04-16T03:22:29.228Z,99.90
2023-04-16T03:24:57.527Z,99.90
2023-04-16T03:27:24.601Z,99.90
2023-04-16T03:29:51.697Z,99.90
2023-04-16T03:32:19.056Z,99.90
2023-04-16T03:34:46.194Z,99.90
2023-04-16T03:37:13.283Z,99.90
2023-04-16T03:39:40.607Z,99.90
2023-04-16T03:42:07.660Z,99.90
2023-04-16T03:44:34.980Z,99.90
2023-04-16T03:47:02.039Z,99.90
2023-04-16T03:49:29.133Z,99.90
2023-04-16T03:51:56.213Z,99.90
2023-04-16T03:54:23.318Z,99.90
2023-04-16T03:56:50.429Z,99.90
2023-04-16T03:59:17.873Z,99.90
2023-04-16T04:01:47.290Z,99.90
2023-04-16T04:04:15.339Z,99.90
2023-04-16T04:06:42.517Z,99.90
2023-04-16T04:09:09.952Z,99.90
2023-04-16T04:11:37.157Z,99.90
2023-04-16T04:14:05.419Z,99.90
2023-04-16T04:16:32.995Z,99.90
2023-04-16T04:19:02.471Z,99.90
2023-04-16T04:21:32.251Z,99.90
2023-04-16T04:23:59.304Z,99.90
2023-04-16T04:26:26.451Z,99.90
2023-04-16T04:28:53.582Z,99.90
2023-04-16T04:31:20.698Z,99.90
2023-04-16T04:33:47.826Z,99.90
2023-04-16T04:36:14.942Z,99.90
2023-04-16T04:38:42.018Z,99.90
2023-04-16T04:41:09.110Z,99.90
2023-04-16T04:43:36.397Z,99.90
2023-04-16T04:46:03.528Z,99.90
2023-04-16T04:48:30.797Z,99.90
2023-04-16T04:51:05.264Z,99.90
2023-04-16T04:53:32.588Z,99.90
2023-04-16T04:56:09.290Z,99.90
2023-04-16T04:58:38.726Z,99.90
2023-04-16T05:01:06.326Z,99.90
2023-04-16T05:03:33.582Z,99.90
2023-04-16T05:06:00.915Z,99.90
2023-04-16T05:08:27.990Z,99.90
2023-04-16T05:10:55.146Z,99.90
2023-04-16T05:13:22.356Z,99.90
2023-04-16T05:15:49.599Z,99.90
2023-04-16T05:18:16.695Z,99.90
2023-04-16T05:20:43.983Z,99.90
2023-04-16T05:23:15.857Z,99.90
2023-04-16T05:25:42.967Z,99.90
2023-04-16T05:28:10.661Z,99.90
2023-04-16T05:30:37.797Z,99.90
2023-04-16T05:33:04.872Z,99.90
2023-04-16T05:35:31.997Z,99.90
2023-04-16T05:37:59.137Z,99.90
2023-04-16T05:40:26.360Z,99.90
2023-04-16T05:42:53.477Z,99.90
2023-04-16T05:45:20.790Z,99.90
2023-04-16T05:47:47.994Z,99.90
2023-04-16T05:50:15.516Z,99.90
2023-04-16T05:52:42.685Z,99.90
2023-04-16T05:55:12.117Z,99.90
2023-04-16T05:57:39.202Z,99.90
2023-04-16T06:00:07.049Z,99.90
2023-04-16T06:02:34.299Z,99.90
2023-04-16T06:05:01.524Z,99.90
2023-04-16T06:07:28.667Z,99.90
2023-04-16T06:09:55.842Z,99.90
2023-04-16T06:12:23.042Z,99.90
2023-04-16T06:14:50.338Z,99.90
2023-04-16T06:17:17.468Z,99.90
2023-04-16T06:19:44.585Z,99.90
2023-04-16T06:22:11.845Z,99.90
2023-04-16T06:24:39.003Z,99.90
2023-04-16T06:27:06.211Z,99.90
2023-04-16T06:29:40.365Z,99.90
2023-04-16T06:32:08.611Z,99.90
2023-04-16T06:34:35.990Z,99.90
2023-04-16T06:37:03.147Z,99.90
2023-04-16T06:39:31.134Z,99.90
2023-04-16T06:41:58.327Z,99.90
2023-04-16T06:44:25.490Z,99.90
2023-04-16T06:46:52.809Z,99.90
2023-04-16T06:49:19.909Z,99.90
2023-04-16T06:51:47.117Z,99.90
2023-04-16T06:54:14.325Z,99.90
2023-04-16T06:56:44.348Z,99.90
2023-04-16T06:59:11.667Z,99.90
2023-04-16T07:01:39.086Z,99.90
2023-04-16T07:04:06.238Z,99.90
2023-04-16T07:06:33.941Z,99.90
2023-04-16T07:09:01.121Z,99.90
2023-04-16T07:11:28.659Z,99.90
2023-04-16T07:13:55.768Z,99.90
2023-04-16T07:16:22.947Z,99.90
2023-04-16T07:18:50.098Z,99.90
2023-04-16T07:21:17.672Z,99.90
2023-04-16T07:23:49.124Z,99.90
2023-04-16T07:26:16.431Z,99.90
2023-04-16T07:28:44.233Z,99.90
2023-04-16T07:31:11.939Z,99.90
2023-04-16T07:33:39.087Z,99.90
2023-04-16T07:36:07.731Z,99.90
2023-04-16T07:38:34.863Z,99.90
2023-04-16T07:41:02.201Z,99.90
2023-04-16T07:43:29.348Z,99.90
2023-04-16T07:45:56.728Z,99.90
2023-04-16T07:48:23.981Z,99.90
2023-04-16T07:50:51.028Z,99.90
2023-04-16T07:53:18.200Z,99.90
2023-04-16T07:55:45.359Z,99.90
2023-04-16T07:58:12.515Z,99.90
2023-04-16T08:00:40.351Z,99.90
2023-04-16T08:03:07.566Z,99.90
2023-04-16T08:05:37.634Z,99.90
2023-04-16T08:08:04.957Z,99.90
2023-04-16T08:10:32.888Z,99.90
2023-04-16T08:13:02.003Z,99.90
2023-04-16T08:15:29.607Z,99.90
2023-04-16T08:17:56.926Z,99.90
2023-04-16T08:20:24.150Z,99.90
2023-04-16T08:22:51.392Z,99.90
2023-04-16T08:25:18.669Z,99.90
2023-04-16T08:27:45.761Z,99.90
2023-04-16T08:30:13.015Z,99.90
2023-04-16T08:32:40.195Z,99.90
2023-04-16T08:35:07.555Z,99.90
2023-04-16T08:37:37.526Z,99.90
2023-04-16T08:40:04.906Z,99.90
2023-04-16T08:42:45.090Z,99.90
2023-04-16T08:45:17.587Z,99.90
2023-04-16T08:47:49.376Z,99.90
2023-04-16T08:50:17.830Z,99.80
2023-04-16T08:52:53.749Z,97.90
2023-04-16T08:55:27.254Z,99.90
2023-04-16T08:58:03.651Z,99.90
2023-04-16T09:00:32.628Z,99.90
2023-04-16T09:03:00.143Z,99.90
2023-04-16T09:05:29.441Z,99.90
2023-04-16T09:07:56.509Z,99.90
2023-04-16T09:10:25.518Z,99.90
2023-04-16T09:12:55.443Z,99.90
2023-04-16T09:15:23.020Z,99.90
2023-04-16T09:17:50.197Z,99.90
2023-04-16T09:20:17.473Z,99.90
2023-04-16T09:22:44.963Z,99.90
2023-04-16T09:25:12.467Z,99.90
2023-04-16T09:27:40.434Z,99.90
2023-04-16T09:30:24.641Z,99.90
2023-04-16T09:32:53.417Z,99.70
2023-04-16T09:35:21.293Z,99.90
2023-04-16T09:37:58.162Z,99.90
2023-04-16T09:40:30.781Z,99.90
2023-04-16T09:42:58.928Z,99.90
2023-04-16T09:45:26.453Z,99.90
2023-04-16T09:48:02.683Z,99.70
2023-04-16T09:50:29.856Z,98.50
2023-04-16T09:53:02.501Z,96.30
2023-04-16T09:55:29.744Z,99.90
2023-04-16T09:58:01.241Z,98.30
2023-04-16T10:00:31.086Z,98.20
2023-04-16T10:03:07.718Z,97.70
2023-04-16T10:05:35.354Z,97.50
2023-04-16T10:08:03.121Z,97.30
2023-04-16T10:10:30.692Z,96.30
2023-04-16T10:12:58.647Z,97.90
2023-04-16T10:15:25.885Z,96.50
2023-04-16T10:17:54.305Z,97.40
2023-04-16T10:20:22.596Z,96.60
2023-04-16T10:22:50.295Z,95.20
2023-04-16T10:25:20.046Z,97.10
2023-04-16T10:27:47.735Z,95.90
2023-04-16T10:30:16.927Z,94.90
2023-04-16T10:32:45.544Z,97.00
2023-04-16T10:35:16.941Z,96.20
2023-04-16T10:37:45.352Z,99.00
2023-04-16T10:40:26.667Z,98.00
2023-04-16T10:42:58.271Z,94.80
2023-04-16T10:45:43.747Z,96.50
2023-04-16T10:48:11.914Z,95.50
2023-04-16T10:50:39.810Z,96.00
2023-04-16T10:53:21.221Z,95.60
2023-04-16T10:56:07.081Z,94.10
2023-04-16T10:58:36.392Z,93.60
2023-04-16T11:01:14.482Z,94.60
2023-04-16T11:03:52.181Z,94.30
2023-04-16T11:06:26.685Z,95.50
2023-04-16T11:08:55.215Z,96.50
2023-04-16T11:11:23.100Z,94.70
2023-04-16T11:13:50.296Z,94.70
2023-04-16T11:16:17.627Z,94.40
2023-04-16T11:18:51.624Z,94.70
2023-04-16T11:21:20.664Z,93.90
2023-04-16T11:23:52.292Z,94.70
2023-04-16T11:26:30.741Z,94.90
2023-04-16T11:29:00.491Z,95.80
2023-04-16T11:31:28.019Z,94.80
2023-04-16T11:33:56.919Z,93.60
2023-04-16T11:36:26.215Z,95.10
2023-04-16T11:39:03.601Z,93.30
2023-04-16T11:41:30.917Z,94.40
2023-04-16T11:43:58.117Z,95.00
2023-04-16T11:46:38.310Z,94.90
2023-04-16T11:49:05.568Z,94.70
2023-04-16T11:51:32.827Z,95.60
2023-04-16T11:54:00.126Z,94.30
2023-04-16T11:56:31.049Z,94.50
2023-04-16T11:59:11.788Z,94.20
2023-04-16T12:01:41.624Z,95.70
2023-04-16T12:04:13.622Z,94.80
2023-04-16T12:06:41.135Z,95.20
2023-04-16T12:09:25.490Z,95.70
2023-04-16T12:11:52.877Z,95.40
2023-04-16T12:14:20.088Z,95.60
2023-04-16T12:16:47.394Z,95.40
2023-04-16T12:19:15.355Z,94.90
2023-04-16T12:21:50.476Z,94.90
2023-04-16T12:24:24.185Z,94.10
2023-04-16T12:27:03.304Z,94.70
2023-04-16T12:29:30.601Z,95.20
2023-04-16T12:32:02.008Z,95.50
2023-04-16T12:34:48.490Z,94.70
2023-04-16T12:37:16.159Z,95.10
2023-04-16T12:39:43.572Z,95.20
2023-04-16T12:42:12.937Z,94.20
2023-04-16T12:44:43.106Z,94.80
2023-04-16T12:47:10.624Z,94.80
2023-04-16T12:49:37.908Z,95.60
2023-04-16T12:52:05.184Z,95.40
2023-04-16T12:54:32.674Z,95.30
2023-04-16T12:56:59.878Z,95.30
2023-04-16T12:59:26.939Z,95.10
2023-04-16T13:01:54.157Z,95.90
2023-04-16T13:04:24.271Z,95.90
2023-04-16T13:06:55.379Z,96.20
2023-04-16T13:09:22.480Z,96.10
2023-04-16T13:11:49.519Z,98.10
2023-04-16T13:14:16.719Z,96.10
2023-04-16T13:16:44.030Z,95.50
2023-04-16T13:19:11.237Z,95.00
2023-04-16T13:21:38.711Z,95.90
2023-04-16T13:24:06.257Z,95.70
2023-04-16T13:26:33.369Z,95.90
2023-04-16T13:29:00.622Z,95.50
2023-04-16T13:31:27.893Z,95.80
2023-04-16T13:33:55.283Z,95.60
2023-04-16T13:36:22.387Z,95.60
2023-04-16T13:38:49.560Z,96.80
2023-04-16T13:41:16.746Z,97.00
2023-04-16T13:43:43.914Z,96.00
2023-04-16T13:46:11.313Z,96.30
2023-04-16T13:48:38.792Z,95.30
2023-04-16T13:51:06.290Z,95.80
2023-04-16T13:53:33.592Z,96.10
2023-04-16T13:56:03.758Z,96.20
2023-04-16T13:58:30.950Z,96.60
2023-04-16T14:00:58.161Z,96.00
2023-04-16T14:03:28.231Z,95.70
2023-04-16T14:05:55.574Z,97.60
2023-04-16T14:08:22.749Z,97.40
2023-04-16T14:10:49.909Z,96.50
2023-04-16T14:13:17.160Z,97.20
2023-04-16T14:15:44.339Z,97.30
2023-04-16T14:18:11.492Z,97.60
2023-04-16T14:20:40.107Z,96.60
2023-04-16T14:23:07.769Z,95.70
2023-04-16T14:25:35.400Z,96.60
2023-04-16T14:28:02.695Z,98.00
2023-04-16T14:30:29.860Z,97.30
2023-04-16T14:32:57.161Z,97.20
2023-04-16T14:35:24.718Z,97.60
2023-04-16T14:37:52.271Z,99.00
2023-04-16T14:40:19.536Z,97.10
2023-04-16T14:42:46.760Z,98.50
2023-04-16T14:45:13.954Z,97.80
2023-04-16T14:47:46.071Z,98.20
2023-04-16T14:50:14.178Z,99.00
2023-04-16T14:52:44.656Z,98.10
2023-04-16T14:55:12.659Z,97.90
2023-04-16T14:57:41.660Z,98.50
2023-04-16T15:00:10.868Z,98.50
2023-04-16T15:02:38.338Z,97.90
2023-04-16T15:05:07.943Z,97.80
2023-04-16T15:07:35.071Z,98.50
2023-04-16T15:10:02.600Z,99.70
2023-04-16T15:12:29.887Z,98.90
2023-04-16T15:14:57.024Z,99.90
2023-04-16T15:17:24.264Z,99.70
2023-04-16T15:19:52.342Z,98.90
2023-04-16T15:22:19.948Z,99.90
2023-04-16T15:24:47.347Z,99.90
2023-04-16T15:27:15.615Z,99.90
2023-04-16T15:29:43.754Z,99.90
2023-04-16T15:32:11.225Z,99.00
2023-04-16T15:34:38.467Z,98.70
2023-04-16T15:37:05.815Z,99.60
2023-04-16T15:39:33.153Z,99.80
2023-04-16T15:42:02.984Z,99.20
2023-04-16T15:44:31.851Z,99.80
2023-04-16T15:47:00.371Z,99.60
2023-04-16T15:49:27.912Z,99.90
2023-04-16T15:51:56.138Z,99.80
2023-04-16T15:54:23.621Z,99.90
2023-04-16T15:56:51.915Z,99.90
2023-04-16T15:59:19.177Z,99.90
2023-04-16T16:01:46.876Z,99.90
2023-04-16T16:04:14.378Z,99.90
2023-04-16T16:06:42.069Z,99.90
2023-04-16T16:09:09.584Z,99.90
2023-04-16T16:11:39.504Z,99.90
2023-04-16T16:14:06.664Z,99.90
2023-04-16T16:16:34.887Z,99.90
2023-04-16T16:19:02.214Z,99.90
2023-04-16T16:21:30.838Z,99.90
2023-04-16T16:23:58.036Z,99.90
2023-04-16T16:26:25.435Z,99.90
2023-04-16T16:28:52.545Z,99.90
2023-04-16T16:31:19.769Z,99.90
2023-04-16T16:33:47.043Z,99.90
2023-04-16T16:36:14.411Z,99.90
2023-04-16T16:38:42.639Z,99.90
2023-04-16T16:41:09.885Z,99.90
2023-04-16T16:43:37.080Z,99.90
2023-04-16T16:46:05.155Z,99.90
2023-04-16T16:48:32.283Z,99.90
2023-04-16T16:50:59.401Z,99.90
2023-04-16T16:53:27.404Z,99.90
2023-04-16T16:55:54.579Z,99.90
2023-04-16T16:58:21.988Z,99.90
2023-04-16T17:00:49.110Z,99.90
2023-04-16T17:03:17.216Z,99.90
2023-04-16T17:05:44.527Z,99.90
2023-04-16T17:08:12.147Z,99.90
2023-04-16T17:10:39.416Z,99.90
2023-04-16T17:13:06.746Z,99.90
2023-04-16T17:15:33.904Z,99.90
2023-04-16T17:18:01.180Z,99.90
2023-04-16T17:20:28.716Z,99.90
2023-04-16T17:22:55.844Z,99.90
2023-04-16T17:25:22.924Z,99.90
2023-04-16T17:27:50.053Z,99.90
2023-04-16T17:30:17.398Z,99.90
2023-04-16T17:32:44.803Z,99.90
2023-04-16T17:35:13.839Z,99.90
2023-04-16T17:37:41.026Z,99.90
2023-04-16T17:40:08.701Z,99.90
2023-04-16T17:42:36.414Z,99.90
2023-04-16T17:45:04.050Z,99.90
2023-04-16T17:47:31.644Z,99.90
2023-04-16T17:49:58.813Z,99.90
2023-04-16T17:52:26.040Z,99.90
2023-04-16T17:55:00.382Z,99.90
2023-04-16T17:57:28.352Z,99.90
2023-04-16T17:59:55.827Z,99.90
2023-04-16T18:02:23.684Z,99.90
2023-04-16T18:04:51.584Z,99.90
2023-04-16T18:07:19.441Z,99.90
2023-04-16T18:09:46.601Z,99.90
2023-04-16T18:12:13.746Z,99.90
2023-04-16T18:14:44.712Z,99.90
2023-04-16T18:17:13.153Z,99.90
2023-04-16T18:19:43.753Z,99.90
2023-04-16T18:22:13.339Z,99.90
2023-04-16T18:24:40.822Z,99.90
2023-04-16T18:27:07.975Z,99.90
2023-04-16T18:29:35.102Z,99.90
2023-04-16T18:32:04.134Z,99.90
2023-04-16T18:34:32.334Z,99.90
2023-04-16T18:36:59.573Z,99.90
2023-04-16T18:39:27.161Z,99.90
2023-04-16T18:41:54.255Z,99.90
2023-04-16T18:44:21.558Z,99.90
2023-04-16T18:46:48.812Z,99.90
2023-04-16T18:49:16.229Z,99.90
2023-04-16T18:51:43.802Z,99.90
2023-04-16T18:54:11.155Z,99.90
2023-04-16T18:56:38.287Z,99.90
2023-04-16T18:59:06.731Z,99.90
2023-04-16T19:01:33.934Z,99.90
2023-04-16T19:04:02.173Z,99.90
2023-04-16T19:06:29.415Z,99.90
2023-04-16T19:08:56.566Z,99.90
2023-04-16T19:11:23.970Z,99.90
2023-04-16T19:13:51.630Z,99.90
2023-04-16T19:16:19.789Z,99.90
2023-04-16T19:18:48.705Z,99.90
2023-04-16T19:21:17.502Z,99.90
2023-04-16T19:23:48.195Z,99.90
2023-04-16T19:26:16.936Z,99.90
2023-04-16T19:28:47.827Z,99.90
2023-04-16T19:31:16.691Z,99.90
2023-04-16T19:33:45.244Z,99.90
2023-04-16T19:36:12.887Z,99.90
2023-04-16T19:38:39.987Z,99.90
2023-04-16T19:41:07.116Z,99.90
2023-04-16T19:43:35.567Z,99.90
2023-04-16T19:46:03.372Z,99.90
2023-04-16T19:48:31.931Z,99.90
2023-04-16T19:51:03.650Z,99.90
2023-04-16T19:53:31.245Z,99.90
2023-04-16T19:55:58.424Z,99.90
2023-04-16T19:58:25.583Z,99.90
2023-04-16T20:00:52.804Z,99.90
2023-04-16T20:03:20.165Z,99.90
2023-04-16T20:05:50.693Z,99.90
2023-04-16T20:08:17.816Z,99.90
2023-04-16T20:10:45.432Z,99.90
2023-04-16T20:13:13.867Z,99.90
2023-04-16T20:15:41.180Z,99.90
2023-04-16T20:18:09.089Z,99.90
2023-04-16T20:20:37.990Z,99.90
2023-04-16T20:23:05.339Z,99.90
2023-04-16T20:25:32.476Z,99.90
2023-04-16T20:27:59.560Z,99.90
2023-04-16T20:30:29.512Z,99.90
2023-04-16T20:32:56.764Z,99.90
2023-04-16T20:35:23.940Z,99.90
2023-04-16T20:37:51.151Z,99.90
2023-04-16T20:40:18.372Z,99.90
2023-04-16T20:42:46.478Z,99.90
2023-04-16T20:45:13.698Z,99.90
2023-04-16T20:47:40.970Z,99.90
2023-04-16T20:50:08.811Z,99.90
2023-04-16T20:52:36.702Z,99.90
2023-04-16T20:55:04.294Z,99.90
2023-04-16T20:57:32.190Z,99.90
2023-04-16T20:59:59.362Z,99.90
2023-04-16T21:02:28.659Z,99.90
2023-04-16T21:04:56.205Z,99.90
2023-04-16T21:07:23.295Z,99.90
2023-04-16T21:09:50.780Z,99.90
2023-04-16T21:12:17.912Z,99.90
2023-04-16T21:14:45.011Z,99.90
2023-04-16T21:17:12.064Z,99.90
2023-04-16T21:19:40.307Z,99.90
2023-04-16T21:22:07.432Z,99.90
2023-04-16T21:24:34.639Z,99.90
2023-04-16T21:27:01.979Z,99.90
2023-04-16T21:29:29.560Z,99.90
2023-04-16T21:31:56.937Z,99.90
2023-04-16T21:34:24.187Z,99.90
2023-04-16T21:36:51.254Z,99.90
2023-04-16T21:39:19.967Z,99.90
2023-04-16T21:41:47.162Z,99.90
2023-04-16T21:44:15.271Z,99.90
2023-04-16T21:46:42.433Z,99.90
2023-04-16T21:49:09.854Z,99.90
2023-04-16T21:51:38.623Z,99.90
2023-04-16T21:54:07.099Z,99.90
2023-04-16T21:56:34.231Z,99.90
2023-04-16T21:59:01.326Z,99.90
2023-04-16T22:01:28.640Z,99.90
2023-04-16T22:03:55.872Z,99.90
2023-04-16T22:06:23.250Z,99.90
2023-04-16T22:08:50.367Z,99.90
2023-04-16T22:11:17.609Z,99.90
2023-04-16T22:13:46.412Z,99.90
2023-04-16T22:16:13.852Z,99.90
2023-04-16T22:18:41.309Z,99.90
2023-04-16T22:21:08.538Z,99.90
2023-04-16T22:23:35.856Z,99.90
2023-04-16T22:26:03.102Z,99.90
2023-04-16T22:28:30.341Z,99.90
2023-04-16T22:30:57.533Z,99.90
2023-04-16T22:33:24.685Z,99.90
2023-04-16T22:35:51.871Z,99.90
2023-04-16T22:38:18.968Z,99.90
2023-04-16T22:40:49.096Z,99.90
2023-04-16T22:43:17.744Z,99.90
2023-04-16T22:45:46.467Z,99.90
2023-04-16T22:48:13.798Z,99.90
2023-04-16T22:50:45.994Z,99.90
2023-04-16T22:53:13.121Z,99.90
2023-04-16T22:55:40.188Z,99.90
2023-04-16T22:58:07.229Z,99.90
2023-04-16T23:00:34.377Z,99.90
2023-04-16T23:03:01.804Z,99.90
2023-04-16T23:05:29.111Z,99.90
2023-04-16T23:07:56.618Z,99.90
2023-04-16T23:10:23.779Z,99.90
2023-04-16T23:12:50.875Z,99.90
2023-04-16T23:15:18.187Z,99.90
2023-04-16T23:17:46.165Z,99.90
2023-04-16T23:20:13.532Z,99.90
2023-04-16T23:22:41.182Z,99.90
2023-04-16T23:25:09.395Z,99.90
2023-04-16T23:27:37.121Z,99.90
2023-04-16T23:30:05.508Z,99.90
2023-04-16T23:32:34.261Z,99.90
2023-04-16T23:35:01.585Z,99.90
2023-04-16T23:37:28.628Z,99.90
2023-04-16T23:39:55.844Z,99.90
2023-04-16T23:42:22.942Z,99.90
2023-04-16T23:44:50.001Z,99.90
2023-04-16T23:47:17.141Z,99.90
2023-04-16T23:49:44.252Z,99.90
2023-04-16T23:52:11.373Z,99.90
2023-04-16T23:54:38.539Z,99.90
2023-04-16T23:57:05.757Z,99.90
2023-04-16T23:59:32.794Z,99.90
